Time;durP1;ratioP1;P1;durP2;ratioP2;P2;SDS_P1;SDS_P2;PMS_P1;PMS_P2;Temp;Humidity;BMP_temperature;BMP_pressure;BME280_temperature;BME280_humidity;BME280_pressure;Samples;Min_cycle;Max_cycle;Signal;HPM_P1;HPM_P2
2022/03/07 00:01:00;;;;;;;45.88;19.00;;;;;;;;;;5129801;27;20137;-77
2022/03/07 00:03:26;;;;;;;51.88;21.38;;;;;;;;;;5116718;28;20040;-78
2022/03/07 00:05:51;;;;;;;43.63;19.58;;;;;;;;;;5115398;28;20032;-79
2022/03/07 00:08:16;;;;;;;41.03;19.25;;;;;;;;;;5116962;28;20352;-78
2022/03/07 00:10:42;;;;;;;41.10;18.58;;;;;;;;;;5116540;28;20031;-78
2022/03/07 00:13:07;;;;;;;45.97;20.38;;;;;;;;;;5116481;28;20042;-78
2022/03/07 00:15:33;;;;;;;44.13;20.00;;;;;;;;;;5116486;28;20028;-78
2022/03/07 00:17:58;;;;;;;40.67;17.67;;;;;;;;;;5115119;28;20054;-77
2022/03/07 00:20:24;;;;;;;44.20;20.13;;;;;;;;;;5115206;28;20129;-78
2022/03/07 00:22:49;;;;;;;45.05;20.80;;;;;;;;;;5127102;27;20035;-78
2022/03/07 00:25:16;;;;;;;43.00;19.30;;;;;;;;;;5117044;27;20027;-79
2022/03/07 00:27:41;;;;;;;44.42;18.58;;;;;;;;;;5116209;28;20075;-78
2022/03/07 00:30:07;;;;;;;41.08;18.23;;;;;;;;;;5116181;27;20027;-78
2022/03/07 00:32:33;;;;;;;44.50;19.90;;;;;;;;;;5114942;28;20074;-78
2022/03/07 00:34:58;;;;;;;42.47;18.50;;;;;;;;;;5114858;28;20485;-79
2022/03/07 00:37:24;;;;;;;39.28;18.30;;;;;;;;;;5115805;28;20020;-78
2022/03/07 00:39:49;;;;;;;40.15;17.80;;;;;;;;;;5115915;28;20031;-78
2022/03/07 00:42:15;;;;;;;39.85;17.80;;;;;;;;;;5115943;28;20049;-78
2022/03/07 00:44:40;;;;;;;38.30;16.58;;;;;;;;;;5121580;28;20027;-78
2022/03/07 00:47:06;;;;;;;40.63;17.92;;;;;;;;;;5122431;28;20118;-78
2022/03/07 00:49:31;;;;;;;36.60;16.60;;;;;;;;;;5115829;28;20432;-78
2022/03/07 00:51:57;;;;;;;44.92;17.80;;;;;;;;;;5115540;28;20067;-78
2022/03/07 00:54:23;;;;;;;43.58;18.42;;;;;;;;;;5115737;28;20032;-78
2022/03/07 00:56:48;;;;;;;54.55;21.90;;;;;;;;;;5115758;28;20028;-78
2022/03/07 00:59:14;;;;;;;39.08;17.77;;;;;;;;;;5115908;28;20035;-78
2022/03/07 01:01:39;;;;;;;38.95;17.80;;;;;;;;;;5115198;28;20452;-78
2022/03/07 01:04:06;;;;;;;41.45;19.08;;;;;;;;;;5116193;28;20098;-78
2022/03/07 01:06:31;;;;;;;46.53;19.42;;;;;;;;;;5118429;28;20387;-79
2022/03/07 01:08:57;;;;;;;50.72;21.10;;;;;;;;;;5124793;27;20031;-78
2022/03/07 01:11:22;;;;;;;45.42;22.63;;;;;;;;;;5117774;28;20032;-77
2022/03/07 01:13:48;;;;;;;47.70;21.98;;;;;;;;;;5120989;28;20038;-78
2022/03/07 01:16:13;;;;;;;46.38;21.38;;;;;;;;;;5114644;28;20031;-79
2022/03/07 01:18:39;;;;;;;42.90;20.33;;;;;;;;;;5114811;28;20032;-79
2022/03/07 01:21:04;;;;;;;44.45;20.25;;;;;;;;;;5114955;28;20019;-78
2022/03/07 01:23:30;;;;;;;44.60;19.67;;;;;;;;;;5114971;28;20039;-77
2022/03/07 01:25:55;;;;;;;37.58;18.00;;;;;;;;;;5115212;28;20445;-78
2022/03/07 01:28:21;;;;;;;42.40;19.83;;;;;;;;;;5115134;28;20028;-78
2022/03/07 01:30:47;;;;;;;41.00;18.80;;;;;;;;;;5124892;28;20021;-78
2022/03/07 01:33:12;;;;;;;42.53;18.65;;;;;;;;;;5116924;28;20023;-78
2022/03/07 01:35:38;;;;;;;45.85;19.63;;;;;;;;;;5114864;28;20027;-79
2022/03/07 01:38:04;;;;;;;40.35;17.50;;;;;;;;;;5096783;28;20035;-78
2022/03/07 01:40:29;;;;;;;39.92;18.23;;;;;;;;;;5114921;28;20030;-78
2022/03/07 01:42:55;;;;;;;44.67;20.27;;;;;;;;;;5113622;28;20027;-79
2022/03/07 01:45:20;;;;;;;46.60;20.35;;;;;;;;;;5113805;28;20058;-79
2022/03/07 01:47:46;;;;;;;43.80;18.77;;;;;;;;;;5114734;28;20425;-79
2022/03/07 01:50:13;;;;;;;44.42;18.23;;;;;;;;;;5113347;28;20028;-78
2022/03/07 01:52:40;;;;;;;39.90;18.23;;;;;;;;;;5105186;28;20042;-78
2022/03/07 01:55:07;;;;;;;41.72;17.90;;;;;;;;;;5099208;28;20024;-78
2022/03/07 01:57:36;;;;;;;40.42;18.08;;;;;;;;;;5113789;28;20371;-79
2022/03/07 02:00:02;;;;;;;42.53;19.13;;;;;;;;;;5097401;28;20047;-78
2022/03/07 02:02:27;;;;;;;40.42;16.50;;;;;;;;;;5114679;28;20436;-78
2022/03/07 02:04:53;;;;;;;41.65;17.98;;;;;;;;;;5113241;28;20436;-78
2022/03/07 02:07:18;;;;;;;39.92;17.23;;;;;;;;;;5113666;28;20028;-78
2022/03/07 02:09:44;;;;;;;40.53;18.20;;;;;;;;;;5114691;28;20511;-78
2022/03/07 02:12:09;;;;;;;38.38;18.42;;;;;;;;;;5114531;28;20386;-80
2022/03/07 02:14:35;;;;;;;38.80;16.75;;;;;;;;;;5117559;28;20401;-78
2022/03/07 02:17:00;;;;;;;39.47;16.50;;;;;;;;;;5121936;28;20585;-78
2022/03/07 02:19:26;;;;;;;42.03;18.23;;;;;;;;;;5114612;28;20032;-79
2022/03/07 02:22:02;;;;;;;35.90;16.40;;;;;;;;;;5113564;28;20028;-78
2022/03/07 02:24:28;;;;;;;41.10;18.48;;;;;;;;;;5113330;28;20031;-78
2022/03/07 02:27:00;;;;;;;42.08;17.77;;;;;;;;;;5114473;28;20432;-78
2022/03/07 02:29:26;;;;;;;36.72;15.82;;;;;;;;;;5114494;28;20051;-79
2022/03/07 02:31:53;;;;;;;45.05;17.88;;;;;;;;;;5115354;28;20526;-78
2022/03/07 02:34:19;;;;;;;42.70;17.27;;;;;;;;;;5118325;28;20452;-78
2022/03/07 02:36:44;;;;;;;48.97;19.23;;;;;;;;;;5118499;28;20016;-78
2022/03/07 02:39:10;;;;;;;48.13;17.83;;;;;;;;;;5130553;28;20023;-78
2022/03/07 02:41:37;;;;;;;52.58;19.65;;;;;;;;;;5118724;28;20402;-79
2022/03/07 02:44:03;;;;;;;61.53;21.38;;;;;;;;;;5118577;28;20032;-79
2022/03/07 02:46:29;;;;;;;69.47;21.23;;;;;;;;;;5118313;28;20028;-78
2022/03/07 02:48:54;;;;;;;64.05;21.20;;;;;;;;;;5083267;28;20051;-78
2022/03/07 02:51:20;;;;;;;82.20;23.50;;;;;;;;;;5083157;28;20028;-78
2022/03/07 02:53:45;;;;;;;91.03;24.23;;;;;;;;;;5118109;28;20031;-78
2022/03/07 02:56:11;;;;;;;89.05;23.88;;;;;;;;;;5117466;28;20098;-78
2022/03/07 02:58:36;;;;;;;73.03;22.75;;;;;;;;;;5083101;28;20467;-79
2022/03/07 03:01:02;;;;;;;62.67;22.40;;;;;;;;;;5128845;28;20110;-79
2022/03/07 03:03:27;;;;;;;66.57;21.60;;;;;;;;;;5118545;28;20036;-78
2022/03/07 03:05:55;;;;;;;77.03;21.52;;;;;;;;;;5116794;28;20356;-79
2022/03/07 03:08:22;;;;;;;82.03;22.00;;;;;;;;;;5117774;28;20028;-78
2022/03/07 03:10:49;;;;;;;80.10;24.25;;;;;;;;;;5100096;28;20054;-79
2022/03/07 03:13:17;;;;;;;78.30;24.20;;;;;;;;;;5116832;28;20396;-79
2022/03/07 03:15:43;;;;;;;83.88;24.90;;;;;;;;;;5117802;28;20100;-79
2022/03/07 03:18:08;;;;;;;69.90;23.35;;;;;;;;;;5117691;28;20070;-78
2022/03/07 03:20:34;;;;;;;60.15;21.55;;;;;;;;;;5117541;28;20436;-79
2022/03/07 03:22:59;;;;;;;66.95;23.33;;;;;;;;;;5130871;28;20103;-78
2022/03/07 03:25:25;;;;;;;77.50;24.50;;;;;;;;;;5126627;28;20417;-79
2022/03/07 03:27:50;;;;;;;78.82;26.02;;;;;;;;;;5135430;28;20007;-80
2022/03/07 03:30:16;;;;;;;60.42;22.25;;;;;;;;;;5126053;28;20035;-79
2022/03/07 03:32:42;;;;;;;58.08;21.35;;;;;;;;;;5099427;28;20456;-78
2022/03/07 03:35:08;;;;;;;49.05;21.50;;;;;;;;;;5117185;28;20019;-78
2022/03/07 03:37:33;;;;;;;53.60;21.27;;;;;;;;;;5098974;28;20024;-78
2022/03/07 03:39:59;;;;;;;55.28;23.35;;;;;;;;;;5116012;28;20019;-79
2022/03/07 03:42:24;;;;;;;47.95;20.85;;;;;;;;;;5116465;28;20359;-79
2022/03/07 03:44:50;;;;;;;42.38;20.25;;;;;;;;;;5123789;28;20014;-79
2022/03/07 03:47:15;;;;;;;38.40;16.92;;;;;;;;;;5091052;28;20050;-79
2022/03/07 03:49:41;;;;;;;44.67;18.33;;;;;;;;;;5098720;28;20126;-78
2022/03/07 03:52:07;;;;;;;46.75;19.05;;;;;;;;;;5099043;28;20119;-79
2022/03/07 03:54:32;;;;;;;44.92;20.15;;;;;;;;;;5081856;28;20028;-79
2022/03/07 03:56:58;;;;;;;44.63;18.55;;;;;;;;;;5117531;27;20063;-79
2022/03/07 03:59:24;;;;;;;39.42;17.88;;;;;;;;;;5116652;28;20096;-79
2022/03/07 04:01:51;;;;;;;43.58;18.80;;;;;;;;;;5116789;28;20079;-79
2022/03/07 04:04:16;;;;;;;48.67;20.38;;;;;;;;;;5116730;28;20070;-79
2022/03/07 04:06:42;;;;;;;41.90;18.58;;;;;;;;;;5102052;28;20451;-79
2022/03/07 04:09:28;;;;;;;46.03;19.85;;;;;;;;;;5130036;28;20164;-78
2022/03/07 04:11:54;;;;;;;47.83;19.55;;;;;;;;;;5116388;28;20106;-79
2022/03/07 04:14:21;;;;;;;43.75;19.98;;;;;;;;;;5115127;28;20031;-79
2022/03/07 04:16:47;;;;;;;47.45;19.05;;;;;;;;;;5116424;28;20121;-79
2022/03/07 04:19:13;;;;;;;44.42;20.40;;;;;;;;;;5115204;28;20024;-79
2022/03/07 04:21:40;;;;;;;44.60;18.80;;;;;;;;;;5116373;28;20100;-79
2022/03/07 04:24:07;;;;;;;50.53;22.92;;;;;;;;;;5115037;28;20142;-78
2022/03/07 04:26:32;;;;;;;52.58;22.17;;;;;;;;;;5116383;28;20024;-78
2022/03/07 04:28:59;;;;;;;47.58;21.88;;;;;;;;;;5097846;28;20023;-79
2022/03/07 04:31:26;;;;;;;54.63;22.40;;;;;;;;;;5128989;28;20405;-79
2022/03/07 04:33:52;;;;;;;51.00;23.60;;;;;;;;;;5098487;28;20065;-79
2022/03/07 04:36:19;;;;;;;48.60;21.75;;;;;;;;;;5097982;28;20061;-78
2022/03/07 04:38:44;;;;;;;47.95;20.50;;;;;;;;;;5114849;28;20051;-80
2022/03/07 04:41:10;;;;;;;48.38;20.15;;;;;;;;;;5081213;28;20461;-78
2022/03/07 04:43:36;;;;;;;46.55;20.52;;;;;;;;;;5097316;28;20118;-79
2022/03/07 04:46:02;;;;;;;49.75;21.88;;;;;;;;;;5116085;28;20459;-79
2022/03/07 04:48:28;;;;;;;46.17;19.63;;;;;;;;;;5114757;28;20023;-78
2022/03/07 04:50:53;;;;;;;60.05;21.48;;;;;;;;;;5114907;28;20032;-78
2022/03/07 04:53:19;;;;;;;46.95;21.10;;;;;;;;;;5121775;28;20012;-79
2022/03/07 04:55:44;;;;;;;50.08;22.83;;;;;;;;;;5120520;28;20444;-79
2022/03/07 04:58:10;;;;;;;57.42;24.13;;;;;;;;;;5115361;28;20038;-79
2022/03/07 05:00:35;;;;;;;59.17;24.40;;;;;;;;;;5115527;28;20028;-79
2022/03/07 05:03:01;;;;;;;55.40;24.25;;;;;;;;;;5114659;28;20027;-79
2022/03/07 05:05:26;;;;;;;60.92;25.95;;;;;;;;;;5115486;28;20023;-79
2022/03/07 05:07:52;;;;;;;61.78;25.48;;;;;;;;;;5114320;28;20094;-79
2022/03/07 05:10:18;;;;;;;52.13;23.25;;;;;;;;;;5097261;28;20023;-80
2022/03/07 05:12:44;;;;;;;61.33;28.88;;;;;;;;;;5080645;28;20032;-81
2022/03/07 05:15:10;;;;;;;69.50;31.30;;;;;;;;;;5100569;28;20042;-81
2022/03/07 05:17:46;;;;;;;69.43;30.35;;;;;;;;;;5124068;28;20440;-79
2022/03/07 05:20:11;;;;;;;68.63;30.95;;;;;;;;;;5076768;28;20027;-79
2022/03/07 05:22:40;;;;;;;65.97;30.13;;;;;;;;;;5074283;28;20025;-78
2022/03/07 05:25:13;;;;;;;72.20;31.05;;;;;;;;;;5074047;28;20499;-77
2022/03/07 05:27:38;;;;;;;75.07;29.88;;;;;;;;;;5074283;28;20025;-78
2022/03/07 05:30:04;;;;;;;71.13;31.80;;;;;;;;;;5056933;28;20335;-80
2022/03/07 05:32:30;;;;;;;82.18;35.08;;;;;;;;;;5073594;28;20035;-78
2022/03/07 05:34:55;;;;;;;82.97;36.25;;;;;;;;;;5074487;28;20028;-77
2022/03/07 05:37:21;;;;;;;102.97;43.08;;;;;;;;;;5076549;28;20109;-79
2022/03/07 05:39:46;;;;;;;97.72;40.35;;;;;;;;;;5083560;28;20055;-79
2022/03/07 05:42:12;;;;;;;94.30;42.17;;;;;;;;;;5071422;28;20035;-79
2022/03/07 05:44:40;;;;;;;76.03;36.03;;;;;;;;;;5071551;28;20070;-78
2022/03/07 05:47:06;;;;;;;98.03;40.05;;;;;;;;;;5072718;28;20090;-78
2022/03/07 05:49:31;;;;;;;89.75;39.53;;;;;;;;;;5072757;28;20028;-78
2022/03/07 05:51:57;;;;;;;80.45;34.97;;;;;;;;;;5073039;28;20032;-79
2022/03/07 05:54:22;;;;;;;73.57;32.95;;;;;;;;;;5077012;28;20064;-79
2022/03/07 05:56:51;;;;;;;68.20;31.00;;;;;;;;;;5074803;28;20021;-78
2022/03/07 05:59:26;;;;;;;77.53;34.72;;;;;;;;;;5080670;28;20028;-78
2022/03/07 06:01:52;;;;;;;69.50;33.42;;;;;;;;;;5084304;28;20373;-78
2022/03/07 06:04:17;;;;;;;79.65;35.95;;;;;;;;;;5105129;28;20043;-80
2022/03/07 06:06:43;;;;;;;72.80;32.20;;;;;;;;;;5082932;28;20118;-78
2022/03/07 06:09:15;;;;;;;66.85;29.77;;;;;;;;;;5114938;28;20056;-80
2022/03/07 06:11:52;;;;;;;70.13;28.85;;;;;;;;;;5103372;28;20024;-83
2022/03/07 06:14:17;;;;;;;70.13;27.63;;;;;;;;;;5086671;28;20139;-84
2022/03/07 06:20:12;;;;;;;76.13;30.77;;;;;;;;;;5057770;28;20048;-87
2022/03/07 06:22:40;;;;;;;71.85;30.50;;;;;;;;;;5047078;28;20040;-79
2022/03/07 06:25:29;;;;;;;87.47;37.95;;;;;;;;;;5071087;27;20044;-78
2022/03/07 06:27:58;;;;;;;70.93;29.40;;;;;;;;;;5079003;28;20052;-85
2022/03/07 06:30:23;;;;;;;60.30;27.60;;;;;;;;;;5086813;28;20058;-79
2022/03/07 06:32:49;;;;;;;87.10;33.28;;;;;;;;;;5083776;28;20084;-78
2022/03/07 06:35:14;;;;;;;74.07;31.10;;;;;;;;;;5063749;28;20036;-78
2022/03/07 06:37:55;;;;;;;66.18;27.33;;;;;;;;;;5090565;28;20036;-80
2022/03/07 06:40:21;;;;;;;74.72;28.25;;;;;;;;;;5103138;28;20024;-84
2022/03/07 06:43:37;;;;;;;;;;;;;;;;;;;;;
2022/03/07 06:45:54;;;;;;;67.70;26.65;;;;;;;;;;5093710;28;20377;-78
2022/03/07 06:48:20;;;;;;;92.78;32.70;;;;;;;;;;5098737;28;20035;-81
2022/03/07 06:50:46;;;;;;;73.00;27.55;;;;;;;;;;5095239;28;20028;-79
2022/03/07 06:53:11;;;;;;;61.08;26.15;;;;;;;;;;5100435;27;20440;-78
2022/03/07 06:55:40;;;;;;;52.25;23.88;;;;;;;;;;5077968;28;20028;-77
2022/03/07 06:58:05;;;;;;;53.88;23.30;;;;;;;;;;5097436;28;20040;-79
2022/03/07 07:00:31;;;;;;;55.30;24.55;;;;;;;;;;5112142;28;20053;-77
2022/03/07 07:02:57;;;;;;;54.72;22.50;;;;;;;;;;5087448;28;20035;-78
2022/03/07 07:05:32;;;;;;;44.42;20.63;;;;;;;;;;5097195;28;20428;-77
2022/03/07 07:08:07;;;;;;;55.70;22.77;;;;;;;;;;5097891;28;20028;-77
2022/03/07 07:10:33;;;;;;;43.88;19.73;;;;;;;;;;5119697;27;20532;-76
2022/03/07 07:12:58;;;;;;;35.03;17.30;;;;;;;;;;5102247;27;20122;-78
2022/03/07 07:15:27;;;;;;;48.20;22.48;;;;;;;;;;5100404;27;20028;-76
2022/03/07 07:17:52;;;;;;;48.22;21.98;;;;;;;;;;5093024;28;20040;-81
2022/03/07 07:20:18;;;;;;;40.33;18.98;;;;;;;;;;5108476;28;20020;-78
2022/03/07 07:22:44;;;;;;;42.08;20.00;;;;;;;;;;5099842;28;20028;-77
2022/03/07 07:25:09;;;;;;;42.38;19.88;;;;;;;;;;5093331;28;20465;-80
2022/03/07 07:27:35;;;;;;;42.80;21.15;;;;;;;;;;5077121;28;20035;-80
2022/03/07 07:30:01;;;;;;;42.80;21.10;;;;;;;;;;5092566;28;20032;-80
2022/03/07 07:32:27;;;;;;;41.60;20.58;;;;;;;;;;5092999;28;20460;-80
2022/03/07 07:34:53;;;;;;;36.38;19.63;;;;;;;;;;5090085;28;20028;-81
2022/03/07 07:37:19;;;;;;;49.60;21.73;;;;;;;;;;5102369;28;20024;-79
2022/03/07 07:39:45;;;;;;;87.03;31.73;;;;;;;;;;5099317;28;20055;-79
2022/03/07 07:42:31;;;;;;;117.50;43.10;;;;;;;;;;5076404;28;20112;-79
2022/03/07 07:44:56;;;;;;;57.40;24.33;;;;;;;;;;5090023;28;20055;-81
2022/03/07 07:47:22;;;;;;;59.95;24.23;;;;;;;;;;5075468;28;20039;-78
2022/03/07 07:49:48;;;;;;;59.38;24.52;;;;;;;;;;5092036;28;20074;-79
2022/03/07 07:52:16;;;;;;;52.90;22.73;;;;;;;;;;5089475;28;20561;-80
2022/03/07 07:54:42;;;;;;;66.50;26.48;;;;;;;;;;5076956;28;20067;-77
2022/03/07 07:57:10;;;;;;;58.30;25.73;;;;;;;;;;5086888;28;20435;-78
2022/03/07 07:59:41;;;;;;;71.97;25.85;;;;;;;;;;5086789;28;20036;-79
2022/03/07 08:02:14;;;;;;;73.53;28.50;;;;;;;;;;5073573;28;20123;-80
2022/03/07 08:04:39;;;;;;;60.65;26.05;;;;;;;;;;5103139;28;20028;-79
2022/03/07 08:07:05;;;;;;;65.95;27.48;;;;;;;;;;5091218;27;20025;-79
2022/03/07 08:09:30;;;;;;;56.55;24.90;;;;;;;;;;5103846;28;20111;-76
2022/03/07 08:11:56;;;;;;;57.28;24.67;;;;;;;;;;5091864;28;20368;-80
2022/03/07 08:14:23;;;;;;;64.18;27.17;;;;;;;;;;5092539;28;20067;-80
2022/03/07 08:16:48;;;;;;;62.67;29.17;;;;;;;;;;5077187;28;20468;-77
2022/03/07 08:19:19;;;;;;;64.38;27.20;;;;;;;;;;5095730;28;20071;-80
2022/03/07 08:22:15;;;;;;;53.95;24.50;;;;;;;;;;5095690;28;20038;-78
2022/03/07 08:24:53;;;;;;;76.53;33.45;;;;;;;;;;5089734;28;20079;-78
2022/03/07 08:27:21;;;;;;;94.68;40.88;;;;;;;;;;5104764;28;20032;-79
2022/03/07 08:29:47;;;;;;;150.93;64.55;;;;;;;;;;5094628;28;20060;-78
2022/03/07 08:32:16;;;;;;;95.18;40.13;;;;;;;;;;5093585;28;20055;-78
2022/03/07 08:34:41;;;;;;;79.43;34.45;;;;;;;;;;5081986;28;20126;-78
2022/03/07 08:37:07;;;;;;;67.80;30.20;;;;;;;;;;5099398;28;20167;-79
2022/03/07 08:39:33;;;;;;;63.65;29.42;;;;;;;;;;5071352;28;20041;-79
2022/03/07 08:41:58;;;;;;;58.53;26.10;;;;;;;;;;5090915;28;20028;-78
2022/03/07 08:44:25;;;;;;;58.05;26.45;;;;;;;;;;5110370;28;20037;-79
2022/03/07 08:46:50;;;;;;;71.43;32.50;;;;;;;;;;5110793;27;20034;-80
2022/03/07 08:49:21;;;;;;;68.85;31.27;;;;;;;;;;5111521;28;20372;-81
2022/03/07 08:51:46;;;;;;;67.97;32.42;;;;;;;;;;5097943;28;20527;-82
2022/03/07 08:54:14;;;;;;;67.00;32.22;;;;;;;;;;5079027;27;20127;-77
2022/03/07 08:56:39;;;;;;;59.20;27.52;;;;;;;;;;5079315;28;20033;-80
2022/03/07 08:59:05;;;;;;;60.47;26.45;;;;;;;;;;5105790;28;20034;-81
2022/03/07 09:01:34;;;;;;;53.97;25.67;;;;;;;;;;5091796;28;20056;-82
2022/03/07 09:04:08;;;;;;;44.50;21.65;;;;;;;;;;5056284;28;20028;-80
2022/03/07 09:06:33;;;;;;;53.70;22.98;;;;;;;;;;5093555;27;20015;-79
2022/03/07 09:08:59;;;;;;;65.65;25.02;;;;;;;;;;5081061;28;20051;-79
2022/03/07 09:11:25;;;;;;;57.15;24.90;;;;;;;;;;5097999;27;20620;-79
2022/03/07 09:13:50;;;;;;;47.00;22.52;;;;;;;;;;5072133;28;20029;-79
2022/03/07 09:16:16;;;;;;;57.15;25.00;;;;;;;;;;5075165;28;20024;-78
2022/03/07 09:18:42;;;;;;;49.55;23.38;;;;;;;;;;5087417;28;20178;-78
2022/03/07 09:21:11;;;;;;;51.03;23.83;;;;;;;;;;5108853;27;20060;-78
2022/03/07 09:23:39;;;;;;;50.10;23.60;;;;;;;;;;5082264;28;20123;-79
2022/03/07 09:26:05;;;;;;;50.78;22.33;;;;;;;;;;5071354;28;20490;-78
2022/03/07 09:28:34;;;;;;;44.55;21.27;;;;;;;;;;5093470;28;20091;-79
2022/03/07 09:31:00;;;;;;;42.67;19.75;;;;;;;;;;5089002;28;20020;-77
2022/03/07 09:33:26;;;;;;;43.88;21.38;;;;;;;;;;5079213;28;20467;-79
2022/03/07 09:35:55;;;;;;;66.82;27.92;;;;;;;;;;5074140;28;20115;-79
2022/03/07 09:38:21;;;;;;;37.70;19.23;;;;;;;;;;5085116;28;20357;-77
2022/03/07 09:40:47;;;;;;;36.58;19.40;;;;;;;;;;5095168;28;20509;-77
2022/03/07 09:43:13;;;;;;;42.03;20.08;;;;;;;;;;5075669;28;20469;-77
2022/03/07 09:45:38;;;;;;;43.05;23.13;;;;;;;;;;5093535;28;20024;-77
2022/03/07 09:48:04;;;;;;;48.97;24.63;;;;;;;;;;5092377;28;20176;-78
2022/03/07 09:50:30;;;;;;;49.20;23.40;;;;;;;;;;5106663;28;20078;-78
2022/03/07 09:52:55;;;;;;;49.03;24.60;;;;;;;;;;5112538;28;20096;-79
2022/03/07 09:55:21;;;;;;;42.17;20.05;;;;;;;;;;5095164;28;20035;-78
2022/03/07 09:57:50;;;;;;;41.97;21.73;;;;;;;;;;5093864;28;20035;-74
2022/03/07 10:00:16;;;;;;;40.50;21.55;;;;;;;;;;5075618;28;20063;-75
2022/03/07 10:03:09;;;;;;;42.33;21.38;;;;;;;;;;5081541;28;20040;-75
2022/03/07 10:05:36;;;;;;;48.72;22.92;;;;;;;;;;5074174;28;20032;-78
2022/03/07 10:08:05;;;;;;;41.58;21.55;;;;;;;;;;5073536;28;20445;-75
2022/03/07 10:10:33;;;;;;;54.67;29.90;;;;;;;;;;5103040;28;20349;-78
2022/03/07 10:13:08;;;;;;;55.42;29.13;;;;;;;;;;5081926;28;20032;-76
2022/03/07 10:15:34;;;;;;;42.08;19.88;;;;;;;;;;5092826;28;20025;-77
2022/03/07 10:17:59;;;;;;;38.65;20.63;;;;;;;;;;5098645;28;20054;-78
2022/03/07 10:20:26;;;;;;;35.85;18.70;;;;;;;;;;5090773;28;20499;-78
2022/03/07 10:22:56;;;;;;;40.20;20.77;;;;;;;;;;5081325;28;20040;-78
2022/03/07 10:25:29;;;;;;;46.22;23.10;;;;;;;;;;5082118;28;20047;-78
2022/03/07 10:27:56;;;;;;;42.90;22.67;;;;;;;;;;5081262;28;20032;-76
2022/03/07 10:30:23;;;;;;;49.72;25.88;;;;;;;;;;5084634;28;20115;-76
2022/03/07 10:33:09;;;;;;;37.05;18.92;;;;;;;;;;5089738;28;20036;-77
2022/03/07 10:35:42;;;;;;;35.95;18.90;;;;;;;;;;5096957;28;20076;-76
2022/03/07 10:38:10;;;;;;;35.75;18.15;;;;;;;;;;5073118;28;20022;-77
2022/03/07 10:40:39;;;;;;;38.42;18.70;;;;;;;;;;5099075;28;20019;-76
2022/03/07 10:43:04;;;;;;;35.08;17.23;;;;;;;;;;5090000;28;20024;-76
2022/03/07 10:45:30;;;;;;;33.53;17.52;;;;;;;;;;5051583;28;20081;-75
2022/03/07 10:48:01;;;;;;;41.15;21.10;;;;;;;;;;5088322;28;20036;-75
2022/03/07 10:50:27;;;;;;;47.95;25.55;;;;;;;;;;5086380;28;20031;-76
2022/03/07 10:53:06;;;;;;;41.38;21.15;;;;;;;;;;5085725;28;20036;-77
2022/03/07 10:55:32;;;;;;;88.60;49.30;;;;;;;;;;5103759;28;20055;-77
2022/03/07 10:58:08;;;;;;;56.85;26.15;;;;;;;;;;5098631;28;20024;-77
2022/03/07 11:00:34;;;;;;;41.20;20.90;;;;;;;;;;5095694;28;20020;-79
2022/03/07 11:03:00;;;;;;;39.38;20.75;;;;;;;;;;5097911;28;20036;-78
2022/03/07 11:05:26;;;;;;;37.67;19.33;;;;;;;;;;5087927;28;20035;-77
2022/03/07 11:07:52;;;;;;;40.03;18.13;;;;;;;;;;5053467;28;20032;-77
2022/03/07 11:10:18;;;;;;;43.90;20.85;;;;;;;;;;5085803;28;20031;-77
2022/03/07 11:12:48;;;;;;;44.83;21.95;;;;;;;;;;5089237;28;20364;-77
2022/03/07 11:15:18;;;;;;;38.33;19.33;;;;;;;;;;5095886;28;20040;-77
2022/03/07 11:17:46;;;;;;;39.30;19.52;;;;;;;;;;5092370;28;20051;-75
2022/03/07 11:20:14;;;;;;;34.97;18.52;;;;;;;;;;5076700;28;20123;-77
2022/03/07 11:22:43;;;;;;;32.80;17.10;;;;;;;;;;5088595;28;20055;-78
2022/03/07 11:25:08;;;;;;;32.65;18.13;;;;;;;;;;5088634;28;20059;-78
2022/03/07 11:27:38;;;;;;;41.42;20.48;;;;;;;;;;5083482;28;20064;-79
2022/03/07 11:30:19;;;;;;;38.25;18.67;;;;;;;;;;5078730;28;20360;-78
2022/03/07 11:32:46;;;;;;;31.08;16.23;;;;;;;;;;5088279;28;20472;-80
2022/03/07 11:35:11;;;;;;;32.15;16.42;;;;;;;;;;5101683;28;20452;-82
2022/03/07 11:37:37;;;;;;;29.45;16.23;;;;;;;;;;5079157;28;20024;-79
2022/03/07 11:40:23;;;;;;;35.17;16.55;;;;;;;;;;5093748;28;20508;-79
2022/03/07 11:42:49;;;;;;;35.97;17.35;;;;;;;;;;5078989;28;20391;-81
2022/03/07 11:45:19;;;;;;;31.83;15.73;;;;;;;;;;5096466;28;20119;-81
2022/03/07 11:47:46;;;;;;;28.27;14.57;;;;;;;;;;5095927;28;20411;-79
2022/03/07 11:50:12;;;;;;;30.48;15.13;;;;;;;;;;5097029;28;20027;-82
2022/03/07 11:52:37;;;;;;;30.60;15.45;;;;;;;;;;5094223;28;20092;-85
2022/03/07 11:55:08;;;;;;;32.45;17.02;;;;;;;;;;5058702;28;20035;-80
2022/03/07 11:57:38;;;;;;;39.28;18.92;;;;;;;;;;5089888;28;20024;-81
2022/03/07 12:00:22;;;;;;;31.70;16.92;;;;;;;;;;5091605;28;20429;-78
2022/03/07 12:02:52;;;;;;;22.15;12.32;;;;;;;;;;5093226;28;20036;-78
2022/03/07 12:05:29;;;;;;;27.63;14.85;;;;;;;;;;5094862;28;20051;-78
2022/03/07 12:08:07;;;;;;;41.70;19.30;;;;;;;;;;5096673;28;20513;-81
2022/03/07 12:10:33;;;;;;;57.85;27.40;;;;;;;;;;5100348;28;20028;-81
2022/03/07 12:13:07;;;;;;;40.70;20.10;;;;;;;;;;5104996;28;20039;-83
2022/03/07 12:15:45;;;;;;;72.63;30.85;;;;;;;;;;5093797;28;20115;-82
2022/03/07 12:18:10;;;;;;;29.35;15.88;;;;;;;;;;5082776;28;20051;-83
2022/03/07 12:20:46;;;;;;;30.35;15.88;;;;;;;;;;5103870;28;20370;-83
2022/03/07 12:23:11;;;;;;;25.95;13.38;;;;;;;;;;5106015;28;20028;-82
2022/03/07 12:25:37;;;;;;;35.00;15.73;;;;;;;;;;5088877;28;20490;-86
2022/03/07 12:28:03;;;;;;;32.05;16.90;;;;;;;;;;5104461;28;20047;-83
2022/03/07 12:30:30;;;;;;;31.35;16.92;;;;;;;;;;5112052;28;20023;-83
2022/03/07 12:32:55;;;;;;;26.20;13.32;;;;;;;;;;5108279;28;20036;-84
2022/03/07 12:35:23;;;;;;;25.02;13.77;;;;;;;;;;5084848;28;20028;-85
2022/03/07 12:37:49;;;;;;;27.83;14.23;;;;;;;;;;5101601;28;20023;-85
2022/03/07 12:40:14;;;;;;;32.97;16.75;;;;;;;;;;5102505;28;20050;-85
2022/03/07 12:42:42;;;;;;;40.05;17.80;;;;;;;;;;5104363;28;20097;-84
2022/03/07 12:45:08;;;;;;;36.65;17.17;;;;;;;;;;5115833;27;20044;-85
2022/03/07 12:47:38;;;;;;;41.53;18.88;;;;;;;;;;5076950;28;20080;-84
2022/03/07 12:50:05;;;;;;;33.28;16.73;;;;;;;;;;5069292;28;20039;-83
2022/03/07 12:52:37;;;;;;;35.10;18.23;;;;;;;;;;5108160;28;20391;-83
2022/03/07 12:55:06;;;;;;;29.42;15.02;;;;;;;;;;5076274;28;20024;-82
2022/03/07 12:57:32;;;;;;;29.98;14.55;;;;;;;;;;5093522;28;21006;-83
2022/03/07 13:00:06;;;;;;;35.70;18.25;;;;;;;;;;5095266;28;20028;-82
2022/03/07 13:02:42;;;;;;;32.22;16.23;;;;;;;;;;5104046;28;20070;-83
2022/03/07 13:05:12;;;;;;;64.45;29.23;;;;;;;;;;5106550;28;20028;-80
2022/03/07 13:07:37;;;;;;;47.92;24.20;;;;;;;;;;5095087;28;20030;-79
2022/03/07 13:10:07;;;;;;;46.83;23.17;;;;;;;;;;5099773;28;20036;-78
2022/03/07 13:12:35;;;;;;;42.80;20.52;;;;;;;;;;5096596;28;20452;-79
2022/03/07 13:15:01;;;;;;;57.88;26.30;;;;;;;;;;5094294;28;20458;-77
2022/03/07 13:17:26;;;;;;;33.17;16.95;;;;;;;;;;5093549;28;20043;-78
2022/03/07 13:19:52;;;;;;;34.95;16.70;;;;;;;;;;5094819;28;20024;-82
2022/03/07 13:22:18;;;;;;;27.42;14.77;;;;;;;;;;5093750;28;20027;-82
2022/03/07 13:24:52;;;;;;;26.45;14.02;;;;;;;;;;5094808;28;20031;-81
2022/03/07 13:27:19;;;;;;;32.20;15.68;;;;;;;;;;5094748;28;20028;-84
2022/03/07 13:29:46;;;;;;;40.13;19.98;;;;;;;;;;5107017;28;20030;-82
2022/03/07 13:32:17;;;;;;;38.70;18.08;;;;;;;;;;5109884;28;20028;-82
2022/03/07 13:34:44;;;;;;;36.15;17.10;;;;;;;;;;5094765;28;20129;-82
2022/03/07 13:37:12;;;;;;;28.95;14.68;;;;;;;;;;5093498;28;20024;-82
2022/03/07 13:39:39;;;;;;;32.97;16.35;;;;;;;;;;5096200;28;20085;-83
2022/03/07 13:42:15;;;;;;;34.00;16.08;;;;;;;;;;5078329;28;20035;-82
2022/03/07 13:45:12;;;;;;;32.78;16.75;;;;;;;;;;5103888;28;20073;-82
2022/03/07 13:47:38;;;;;;;32.88;15.82;;;;;;;;;;5096829;28;20032;-82
2022/03/07 13:50:09;;;;;;;34.92;16.73;;;;;;;;;;5086533;28;20058;-82
2022/03/07 13:52:38;;;;;;;;;;;;;;;;;;5100784;28;20473;-82
2022/03/07 13:55:18;;;;;;;32.13;15.02;;;;;;;;;;5094410;28;19912;-81
2022/03/07 13:57:51;;;;;;;34.47;15.67;;;;;;;;;;5093614;28;20034;-81
2022/03/07 14:00:18;;;;;;;33.22;15.57;;;;;;;;;;5094097;28;20422;-81
2022/03/07 14:02:46;;;;;;;30.30;15.43;;;;;;;;;;5093020;28;20115;-82
2022/03/07 14:05:12;;;;;;;29.08;13.45;;;;;;;;;;5094528;28;20024;-80
2022/03/07 14:07:40;;;;;;;28.70;14.80;;;;;;;;;;5093344;28;20024;-81
2022/03/07 14:10:12;;;;;;;26.75;14.25;;;;;;;;;;5105076;28;20008;-80
2022/03/07 14:12:39;;;;;;;28.98;14.27;;;;;;;;;;5097327;28;20058;-80
2022/03/07 14:15:07;;;;;;;32.25;15.10;;;;;;;;;;5076644;28;20419;-80
2022/03/07 14:17:34;;;;;;;38.47;17.58;;;;;;;;;;5092724;28;20052;-80
2022/03/07 14:20:06;;;;;;;30.60;15.55;;;;;;;;;;5093203;28;20027;-79
2022/03/07 14:22:33;;;;;;;31.27;16.10;;;;;;;;;;5093049;28;20032;-78
2022/03/07 14:24:58;;;;;;;32.42;16.20;;;;;;;;;;5093017;28;20434;-79